sensor_id;sensor_type;location;lat;lon;timestamp;P1;durP1;ratioP1;P2;durP2;ratioP2
63346;SDS011;49472;49.880;8.650;2023-09-12T00:00:02;27.60;;;16.25;;
63346;SDS011;49472;49.880;8.650;2023-09-12T00:02:30;25.60;;;17.33;;
63346;SDS011;49472;49.880;8.650;2023-09-12T00:04:55;27.13;;;17.70;;
63346;SDS011;49472;49.880;8.650;2023-09-12T00:07:20;22.40;;;16.47;;
63346;SDS011;49472;49.880;8.650;2023-09-12T00:09:45;25.05;;;16.77;;
63346;SDS011;49472;49.880;8.650;2023-09-12T00:12:13;18.20;;;16.40;;
63346;SDS011;49472;49.880;8.650;2023-09-12T00:14:39;23.30;;;16.65;;
63346;SDS011;49472;49.880;8.650;2023-09-12T00:17:04;20.55;;;16.50;;
63346;SDS011;49472;49.880;8.650;2023-09-12T00:19:29;30.00;;;16.48;;
63346;SDS011;49472;49.880;8.650;2023-09-12T00:24:38;25.75;;;17.70;;
63346;SDS011;49472;49.880;8.650;2023-09-12T00:27:04;31.65;;;16.20;;
63346;SDS011;49472;49.880;8.650;2023-09-12T00:29:30;23.92;;;16.83;;
63346;SDS011;49472;49.880;8.650;2023-09-12T00:31:55;28.05;;;17.23;;
63346;SDS011;49472;49.880;8.650;2023-09-12T00:34:20;28.83;;;18.10;;
63346;SDS011;49472;49.880;8.650;2023-09-12T00:36:45;24.05;;;16.30;;
63346;SDS011;49472;49.880;8.650;2023-09-12T00:39:10;24.30;;;17.87;;
63346;SDS011;49472;49.880;8.650;2023-09-12T00:41:35;25.20;;;16.87;;
63346;SDS011;49472;49.880;8.650;2023-09-12T00:44:01;24.60;;;15.73;;
63346;SDS011;49472;49.880;8.650;2023-09-12T00:46:26;22.00;;;17.02;;
63346;SDS011;49472;49.880;8.650;2023-09-12T00:48:52;25.20;;;17.40;;
63346;SDS011;49472;49.880;8.650;2023-09-12T00:51:18;21.13;;;17.15;;
63346;SDS011;49472;49.880;8.650;2023-09-12T00:53:45;20.50;;;17.40;;
63346;SDS011;49472;49.880;8.650;2023-09-12T00:56:11;26.90;;;17.42;;
63346;SDS011;49472;49.880;8.650;2023-09-12T00:58:36;23.77;;;16.70;;
63346;SDS011;49472;49.880;8.650;2023-09-12T01:01:02;27.00;;;18.05;;
63346;SDS011;49472;49.880;8.650;2023-09-12T01:03:27;21.48;;;16.67;;
63346;SDS011;49472;49.880;8.650;2023-09-12T01:05:52;30.10;;;17.17;;
63346;SDS011;49472;49.880;8.650;2023-09-12T01:08:18;23.17;;;16.50;;
63346;SDS011;49472;49.880;8.650;2023-09-12T01:10:43;25.03;;;18.87;;
63346;SDS011;49472;49.880;8.650;2023-09-12T01:13:11;25.48;;;17.85;;
63346;SDS011;49472;49.880;8.650;2023-09-12T01:15:36;30.88;;;17.40;;
63346;SDS011;49472;49.880;8.650;2023-09-12T01:18:01;24.50;;;17.20;;
63346;SDS011;49472;49.880;8.650;2023-09-12T01:20:28;22.95;;;16.58;;
63346;SDS011;49472;49.880;8.650;2023-09-12T01:23:05;23.50;;;17.85;;
63346;SDS011;49472;49.880;8.650;2023-09-12T01:27:58;23.90;;;17.80;;
63346;SDS011;49472;49.880;8.650;2023-09-12T01:30:24;23.63;;;18.20;;
63346;SDS011;49472;49.880;8.650;2023-09-12T01:32:50;29.67;;;18.15;;
63346;SDS011;49472;49.880;8.650;2023-09-12T01:35:15;21.92;;;18.13;;
63346;SDS011;49472;49.880;8.650;2023-09-12T01:37:40;24.80;;;17.73;;
63346;SDS011;49472;49.880;8.650;2023-09-12T01:40:06;23.47;;;17.17;;
63346;SDS011;49472;49.880;8.650;2023-09-12T01:42:35;27.55;;;16.33;;
63346;SDS011;49472;49.880;8.650;2023-09-12T01:45:01;26.65;;;18.33;;
63346;SDS011;49472;49.880;8.650;2023-09-12T01:47:27;24.45;;;16.83;;
63346;SDS011;49472;49.880;8.650;2023-09-12T01:49:54;27.00;;;17.10;;
63346;SDS011;49472;49.880;8.650;2023-09-12T01:52:20;24.90;;;16.85;;
63346;SDS011;49472;49.880;8.650;2023-09-12T01:54:46;25.30;;;17.27;;
63346;SDS011;49472;49.880;8.650;2023-09-12T01:57:12;22.52;;;18.20;;
63346;SDS011;49472;49.880;8.650;2023-09-12T01:59:37;24.13;;;18.10;;
63346;SDS011;49472;49.880;8.650;2023-09-12T02:02:02;23.67;;;17.92;;
63346;SDS011;49472;49.880;8.650;2023-09-12T02:04:28;30.25;;;18.33;;
63346;SDS011;49472;49.880;8.650;2023-09-12T02:06:53;29.20;;;17.57;;
63346;SDS011;49472;49.880;8.650;2023-09-12T02:09:18;32.05;;;19.38;;
63346;SDS011;49472;49.880;8.650;2023-09-12T02:11:43;19.67;;;17.60;;
63346;SDS011;49472;49.880;8.650;2023-09-12T02:14:09;21.08;;;18.10;;
63346;SDS011;49472;49.880;8.650;2023-09-12T02:16:36;27.65;;;18.25;;
63346;SDS011;49472;49.880;8.650;2023-09-12T02:19:02;24.58;;;18.48;;
63346;SDS011;49472;49.880;8.650;2023-09-12T02:21:27;23.63;;;17.83;;
63346;SDS011;49472;49.880;8.650;2023-09-12T02:23:52;19.27;;;17.13;;
63346;SDS011;49472;49.880;8.650;2023-09-12T02:26:18;28.67;;;17.63;;
63346;SDS011;49472;49.880;8.650;2023-09-12T02:28:43;24.73;;;17.50;;
63346;SDS011;49472;49.880;8.650;2023-09-12T02:31:10;18.38;;;16.65;;
63346;SDS011;49472;49.880;8.650;2023-09-12T02:33:37;20.55;;;17.50;;
63346;SDS011;49472;49.880;8.650;2023-09-12T02:36:02;24.80;;;18.55;;
63346;SDS011;49472;49.880;8.650;2023-09-12T02:38:27;29.40;;;18.90;;
63346;SDS011;49472;49.880;8.650;2023-09-12T02:40:52;19.23;;;17.27;;
63346;SDS011;49472;49.880;8.650;2023-09-12T02:43:18;39.08;;;17.95;;
63346;SDS011;49472;49.880;8.650;2023-09-12T02:45:43;26.38;;;19.25;;
63346;SDS011;49472;49.880;8.650;2023-09-12T02:48:08;23.35;;;17.75;;
63346;SDS011;49472;49.880;8.650;2023-09-12T02:50:33;24.93;;;17.83;;
63346;SDS011;49472;49.880;8.650;2023-09-12T02:52:58;25.65;;;19.63;;
63346;SDS011;49472;49.880;8.650;2023-09-12T02:55:24;33.87;;;18.93;;
63346;SDS011;49472;49.880;8.650;2023-09-12T02:57:49;33.30;;;18.73;;
63346;SDS011;49472;49.880;8.650;2023-09-12T03:00:14;20.02;;;17.50;;
63346;SDS011;49472;49.880;8.650;2023-09-12T03:02:39;29.27;;;17.85;;
63346;SDS011;49472;49.880;8.650;2023-09-12T03:05:04;33.57;;;17.40;;
63346;SDS011;49472;49.880;8.650;2023-09-12T03:07:30;25.70;;;17.20;;
63346;SDS011;49472;49.880;8.650;2023-09-12T03:09:55;20.50;;;17.25;;
63346;SDS011;49472;49.880;8.650;2023-09-12T03:12:20;31.63;;;18.00;;
63346;SDS011;49472;49.880;8.650;2023-09-12T03:14:46;18.67;;;16.73;;
63346;SDS011;49472;49.880;8.650;2023-09-12T03:17:11;28.15;;;19.05;;
63346;SDS011;49472;49.880;8.650;2023-09-12T03:19:36;67.40;;;26.80;;
63346;SDS011;49472;49.880;8.650;2023-09-12T03:22:01;52.77;;;24.23;;
63346;SDS011;49472;49.880;8.650;2023-09-12T03:24:26;33.15;;;23.08;;
63346;SDS011;49472;49.880;8.650;2023-09-12T03:26:53;52.67;;;26.52;;
63346;SDS011;49472;49.880;8.650;2023-09-12T03:29:19;71.40;;;30.95;;
63346;SDS011;49472;49.880;8.650;2023-09-12T03:31:44;56.88;;;28.83;;
63346;SDS011;49472;49.880;8.650;2023-09-12T03:34:09;53.33;;;28.55;;
63346;SDS011;49472;49.880;8.650;2023-09-12T03:36:34;50.03;;;25.30;;
63346;SDS011;49472;49.880;8.650;2023-09-12T03:38:59;32.10;;;20.27;;
63346;SDS011;49472;49.880;8.650;2023-09-12T03:41:24;30.17;;;20.58;;
63346;SDS011;49472;49.880;8.650;2023-09-12T03:43:53;21.88;;;18.83;;
63346;SDS011;49472;49.880;8.650;2023-09-12T03:46:19;30.48;;;18.88;;
63346;SDS011;49472;49.880;8.650;2023-09-12T03:48:44;30.10;;;21.30;;
63346;SDS011;49472;49.880;8.650;2023-09-12T03:51:10;24.00;;;18.50;;
63346;SDS011;49472;49.880;8.650;2023-09-12T03:53:36;25.52;;;19.95;;
63346;SDS011;49472;49.880;8.650;2023-09-12T03:56:01;21.27;;;18.65;;
63346;SDS011;49472;49.880;8.650;2023-09-12T03:58:26;28.83;;;19.47;;
63346;SDS011;49472;49.880;8.650;2023-09-12T04:00:51;25.30;;;19.13;;
63346;SDS011;49472;49.880;8.650;2023-09-12T04:03:16;21.65;;;19.05;;
63346;SDS011;49472;49.880;8.650;2023-09-12T04:05:42;20.75;;;18.58;;
63346;SDS011;49472;49.880;8.650;2023-09-12T04:08:07;35.40;;;18.92;;
63346;SDS011;49472;49.880;8.650;2023-09-12T04:10:32;23.25;;;18.85;;
63346;SDS011;49472;49.880;8.650;2023-09-12T04:12:57;26.80;;;19.13;;
63346;SDS011;49472;49.880;8.650;2023-09-12T04:15:22;20.75;;;18.85;;
63346;SDS011;49472;49.880;8.650;2023-09-12T04:17:48;22.95;;;18.52;;
63346;SDS011;49472;49.880;8.650;2023-09-12T04:20:13;26.55;;;20.08;;
63346;SDS011;49472;49.880;8.650;2023-09-12T04:22:39;24.15;;;18.40;;
63346;SDS011;49472;49.880;8.650;2023-09-12T04:25:04;28.23;;;19.35;;
63346;SDS011;49472;49.880;8.650;2023-09-12T04:27:29;27.83;;;18.80;;
63346;SDS011;49472;49.880;8.650;2023-09-12T04:29:54;30.83;;;19.80;;
63346;SDS011;49472;49.880;8.650;2023-09-12T04:32:20;27.23;;;17.77;;
63346;SDS011;49472;49.880;8.650;2023-09-12T04:34:48;25.02;;;19.48;;
63346;SDS011;49472;49.880;8.650;2023-09-12T04:37:13;22.10;;;19.50;;
63346;SDS011;49472;49.880;8.650;2023-09-12T04:39:38;22.13;;;20.03;;
63346;SDS011;49472;49.880;8.650;2023-09-12T04:42:04;24.07;;;18.87;;
63346;SDS011;49472;49.880;8.650;2023-09-12T04:44:31;30.10;;;18.92;;
63346;SDS011;49472;49.880;8.650;2023-09-12T04:46:59;22.10;;;19.83;;
63346;SDS011;49472;49.880;8.650;2023-09-12T04:49:24;26.77;;;19.83;;
63346;SDS011;49472;49.880;8.650;2023-09-12T04:51:49;22.30;;;18.90;;
63346;SDS011;49472;49.880;8.650;2023-09-12T04:54:15;26.85;;;19.08;;
63346;SDS011;49472;49.880;8.650;2023-09-12T04:56:40;24.08;;;19.55;;
63346;SDS011;49472;49.880;8.650;2023-09-12T04:59:05;31.33;;;19.73;;
63346;SDS011;49472;49.880;8.650;2023-09-12T05:01:31;27.17;;;18.65;;
63346;SDS011;49472;49.880;8.650;2023-09-12T05:03:56;22.27;;;18.50;;
63346;SDS011;49472;49.880;8.650;2023-09-12T05:06:22;20.87;;;18.37;;
63346;SDS011;49472;49.880;8.650;2023-09-12T05:08:49;27.60;;;21.40;;
63346;SDS011;49472;49.880;8.650;2023-09-12T05:11:14;24.25;;;20.88;;
63346;SDS011;49472;49.880;8.650;2023-09-12T05:13:40;26.25;;;19.02;;
63346;SDS011;49472;49.880;8.650;2023-09-12T05:16:06;24.67;;;19.45;;
63346;SDS011;49472;49.880;8.650;2023-09-12T05:18:31;26.70;;;20.35;;
63346;SDS011;49472;49.880;8.650;2023-09-12T05:20:56;28.20;;;20.53;;
63346;SDS011;49472;49.880;8.650;2023-09-12T05:23:21;25.75;;;20.15;;
63346;SDS011;49472;49.880;8.650;2023-09-12T05:25:46;22.77;;;20.43;;
63346;SDS011;49472;49.880;8.650;2023-09-12T05:28:12;27.85;;;20.83;;
63346;SDS011;49472;49.880;8.650;2023-09-12T05:30:41;23.70;;;21.23;;
63346;SDS011;49472;49.880;8.650;2023-09-12T05:33:06;24.55;;;19.52;;
63346;SDS011;49472;49.880;8.650;2023-09-12T05:35:31;24.65;;;21.00;;
63346;SDS011;49472;49.880;8.650;2023-09-12T05:37:56;22.48;;;19.95;;
63346;SDS011;49472;49.880;8.650;2023-09-12T05:40:22;26.57;;;19.90;;
63346;SDS011;49472;49.880;8.650;2023-09-12T05:42:47;27.42;;;20.73;;
63346;SDS011;49472;49.880;8.650;2023-09-12T05:45:12;37.38;;;22.10;;
63346;SDS011;49472;49.880;8.650;2023-09-12T05:47:38;23.20;;;20.65;;
63346;SDS011;49472;49.880;8.650;2023-09-12T05:50:03;29.70;;;20.50;;
63346;SDS011;49472;49.880;8.650;2023-09-12T05:52:31;32.28;;;21.80;;
63346;SDS011;49472;49.880;8.650;2023-09-12T05:54:56;24.87;;;21.00;;
63346;SDS011;49472;49.880;8.650;2023-09-12T05:57:22;35.83;;;21.08;;
63346;SDS011;49472;49.880;8.650;2023-09-12T05:59:47;28.65;;;20.15;;
63346;SDS011;49472;49.880;8.650;2023-09-12T06:02:12;29.13;;;20.63;;
63346;SDS011;49472;49.880;8.650;2023-09-12T06:04:38;34.37;;;21.63;;
63346;SDS011;49472;49.880;8.650;2023-09-12T06:07:03;30.30;;;20.88;;
63346;SDS011;49472;49.880;8.650;2023-09-12T06:09:28;31.02;;;20.50;;
63346;SDS011;49472;49.880;8.650;2023-09-12T06:11:54;21.90;;;19.88;;
63346;SDS011;49472;49.880;8.650;2023-09-12T06:14:19;22.95;;;20.73;;
63346;SDS011;49472;49.880;8.650;2023-09-12T06:16:44;32.80;;;22.48;;
63346;SDS011;49472;49.880;8.650;2023-09-12T06:19:11;29.58;;;19.70;;
63346;SDS011;49472;49.880;8.650;2023-09-12T06:21:37;22.75;;;20.67;;
63346;SDS011;49472;49.880;8.650;2023-09-12T06:24:19;28.23;;;20.35;;
63346;SDS011;49472;49.880;8.650;2023-09-12T06:26:46;23.65;;;19.92;;
63346;SDS011;49472;49.880;8.650;2023-09-12T06:29:11;27.10;;;20.57;;
63346;SDS011;49472;49.880;8.650;2023-09-12T06:31:36;36.33;;;20.50;;
63346;SDS011;49472;49.880;8.650;2023-09-12T06:34:01;25.30;;;20.80;;
63346;SDS011;49472;49.880;8.650;2023-09-12T06:36:27;22.85;;;20.48;;
63346;SDS011;49472;49.880;8.650;2023-09-12T06:38:54;35.78;;;20.15;;
63346;SDS011;49472;49.880;8.650;2023-09-12T06:41:19;31.90;;;21.00;;
63346;SDS011;49472;49.880;8.650;2023-09-12T06:43:44;27.05;;;20.98;;
63346;SDS011;49472;49.880;8.650;2023-09-12T06:46:10;29.83;;;20.37;;
63346;SDS011;49472;49.880;8.650;2023-09-12T06:48:35;42.17;;;21.23;;
63346;SDS011;49472;49.880;8.650;2023-09-12T06:51:00;22.27;;;19.90;;
63346;SDS011;49472;49.880;8.650;2023-09-12T06:53:25;28.33;;;19.70;;
63346;SDS011;49472;49.880;8.650;2023-09-12T06:55:50;29.60;;;21.70;;
63346;SDS011;49472;49.880;8.650;2023-09-12T06:58:16;29.65;;;21.25;;
63346;SDS011;49472;49.880;8.650;2023-09-12T07:00:41;37.00;;;21.13;;
63346;SDS011;49472;49.880;8.650;2023-09-12T07:03:06;26.42;;;20.23;;
63346;SDS011;49472;49.880;8.650;2023-09-12T07:05:31;33.78;;;20.50;;
63346;SDS011;49472;49.880;8.650;2023-09-12T07:07:56;37.50;;;21.30;;
63346;SDS011;49472;49.880;8.650;2023-09-12T07:10:22;31.23;;;20.80;;
63346;SDS011;49472;49.880;8.650;2023-09-12T07:12:47;22.60;;;19.55;;
63346;SDS011;49472;49.880;8.650;2023-09-12T07:15:12;26.80;;;19.73;;
63346;SDS011;49472;49.880;8.650;2023-09-12T07:17:38;53.65;;;20.95;;
63346;SDS011;49472;49.880;8.650;2023-09-12T07:20:03;26.85;;;20.75;;
63346;SDS011;49472;49.880;8.650;2023-09-12T07:22:29;24.02;;;21.50;;
63346;SDS011;49472;49.880;8.650;2023-09-12T07:24:54;36.87;;;24.50;;
63346;SDS011;49472;49.880;8.650;2023-09-12T07:27:20;25.10;;;22.48;;
63346;SDS011;49472;49.880;8.650;2023-09-12T07:29:45;31.45;;;21.27;;
63346;SDS011;49472;49.880;8.650;2023-09-12T07:32:10;34.58;;;23.05;;
63346;SDS011;49472;49.880;8.650;2023-09-12T07:34:35;35.53;;;21.67;;
63346;SDS011;49472;49.880;8.650;2023-09-12T07:37:05;37.75;;;22.30;;
63346;SDS011;49472;49.880;8.650;2023-09-12T07:39:33;34.80;;;22.60;;
63346;SDS011;49472;49.880;8.650;2023-09-12T07:41:58;26.10;;;22.50;;
63346;SDS011;49472;49.880;8.650;2023-09-12T07:44:23;25.50;;;21.20;;
63346;SDS011;49472;49.880;8.650;2023-09-12T07:46:48;29.60;;;20.50;;
63346;SDS011;49472;49.880;8.650;2023-09-12T07:49:14;32.28;;;21.23;;
63346;SDS011;49472;49.880;8.650;2023-09-12T07:51:39;22.20;;;19.80;;
63346;SDS011;49472;49.880;8.650;2023-09-12T07:54:04;29.67;;;20.83;;
63346;SDS011;49472;49.880;8.650;2023-09-12T07:56:29;39.13;;;22.60;;
63346;SDS011;49472;49.880;8.650;2023-09-12T07:58:56;26.30;;;19.55;;
63346;SDS011;49472;49.880;8.650;2023-09-12T08:01:21;22.88;;;20.40;;
63346;SDS011;49472;49.880;8.650;2023-09-12T08:03:47;37.37;;;22.23;;
63346;SDS011;49472;49.880;8.650;2023-09-12T08:06:12;26.27;;;21.40;;
63346;SDS011;49472;49.880;8.650;2023-09-12T08:08:38;25.17;;;21.10;;
63346;SDS011;49472;49.880;8.650;2023-09-12T08:11:03;23.67;;;21.05;;
63346;SDS011;49472;49.880;8.650;2023-09-12T08:13:29;23.10;;;20.70;;
63346;SDS011;49472;49.880;8.650;2023-09-12T08:15:54;23.15;;;20.75;;
63346;SDS011;49472;49.880;8.650;2023-09-12T08:18:20;30.20;;;21.38;;
63346;SDS011;49472;49.880;8.650;2023-09-12T08:20:45;28.50;;;21.25;;
63346;SDS011;49472;49.880;8.650;2023-09-12T08:23:10;25.83;;;22.10;;
63346;SDS011;49472;49.880;8.650;2023-09-12T08:25:35;27.27;;;21.02;;
63346;SDS011;49472;49.880;8.650;2023-09-12T08:28:01;29.23;;;23.00;;
63346;SDS011;49472;49.880;8.650;2023-09-12T08:30:26;35.50;;;20.77;;
63346;SDS011;49472;49.880;8.650;2023-09-12T08:32:53;34.38;;;22.33;;
63346;SDS011;49472;49.880;8.650;2023-09-12T08:35:18;25.17;;;22.63;;
63346;SDS011;49472;49.880;8.650;2023-09-12T08:37:43;35.60;;;21.70;;
63346;SDS011;49472;49.880;8.650;2023-09-12T08:40:09;27.02;;;22.08;;
63346;SDS011;49472;49.880;8.650;2023-09-12T08:42:42;30.38;;;23.05;;
63346;SDS011;49472;49.880;8.650;2023-09-12T08:45:16;29.25;;;22.08;;
63346;SDS011;49472;49.880;8.650;2023-09-12T08:47:43;35.78;;;22.10;;
63346;SDS011;49472;49.880;8.650;2023-09-12T08:50:12;31.35;;;21.00;;
63346;SDS011;49472;49.880;8.650;2023-09-12T08:52:41;31.50;;;20.42;;
63346;SDS011;49472;49.880;8.650;2023-09-12T08:55:07;27.92;;;22.10;;
63346;SDS011;49472;49.880;8.650;2023-09-12T08:57:32;37.40;;;22.38;;
63346;SDS011;49472;49.880;8.650;2023-09-12T08:59:58;31.73;;;21.95;;
63346;SDS011;49472;49.880;8.650;2023-09-12T09:02:24;30.65;;;20.95;;
63346;SDS011;49472;49.880;8.650;2023-09-12T09:04:49;33.75;;;21.45;;
63346;SDS011;49472;49.880;8.650;2023-09-12T09:07:15;30.33;;;21.15;;
63346;SDS011;49472;49.880;8.650;2023-09-12T09:09:41;31.33;;;20.63;;
63346;SDS011;49472;49.880;8.650;2023-09-12T09:12:07;29.48;;;20.67;;
63346;SDS011;49472;49.880;8.650;2023-09-12T09:14:32;34.58;;;20.73;;
63346;SDS011;49472;49.880;8.650;2023-09-12T09:16:58;29.83;;;22.33;;
63346;SDS011;49472;49.880;8.650;2023-09-12T09:19:23;33.88;;;21.67;;
63346;SDS011;49472;49.880;8.650;2023-09-12T09:22:04;29.50;;;20.08;;
63346;SDS011;49472;49.880;8.650;2023-09-12T09:24:30;28.67;;;20.02;;
63346;SDS011;49472;49.880;8.650;2023-09-12T09:26:56;25.58;;;20.02;;
63346;SDS011;49472;49.880;8.650;2023-09-12T09:29:25;34.67;;;21.55;;
63346;SDS011;49472;49.880;8.650;2023-09-12T09:31:50;23.00;;;20.80;;
63346;SDS011;49472;49.880;8.650;2023-09-12T09:34:16;26.85;;;20.77;;
63346;SDS011;49472;49.880;8.650;2023-09-12T09:36:49;24.67;;;19.70;;
63346;SDS011;49472;49.880;8.650;2023-09-12T09:39:18;41.60;;;22.55;;
63346;SDS011;49472;49.880;8.650;2023-09-12T09:41:47;28.25;;;20.98;;
63346;SDS011;49472;49.880;8.650;2023-09-12T09:44:12;34.00;;;20.23;;
63346;SDS011;49472;49.880;8.650;2023-09-12T09:46:38;36.15;;;22.13;;
63346;SDS011;49472;49.880;8.650;2023-09-12T09:49:03;31.58;;;21.55;;
63346;SDS011;49472;49.880;8.650;2023-09-12T09:51:29;30.25;;;21.27;;
63346;SDS011;49472;49.880;8.650;2023-09-12T09:53:54;37.92;;;20.33;;
63346;SDS011;49472;49.880;8.650;2023-09-12T09:56:23;37.80;;;21.02;;
63346;SDS011;49472;49.880;8.650;2023-09-12T09:58:48;23.17;;;20.08;;
63346;SDS011;49472;49.880;8.650;2023-09-12T10:01:19;25.08;;;20.30;;
63346;SDS011;49472;49.880;8.650;2023-09-12T10:03:46;30.50;;;20.70;;
63346;SDS011;49472;49.880;8.650;2023-09-12T10:06:12;22.60;;;20.17;;
63346;SDS011;49472;49.880;8.650;2023-09-12T10:14:44;23.92;;;19.73;;
63346;SDS011;49472;49.880;8.650;2023-09-12T10:17:10;26.67;;;20.48;;
63346;SDS011;49472;49.880;8.650;2023-09-12T10:19:38;27.98;;;18.52;;
63346;SDS011;49472;49.880;8.650;2023-09-12T10:22:12;28.60;;;21.05;;
63346;SDS011;49472;49.880;8.650;2023-09-12T10:24:40;29.92;;;20.10;;
63346;SDS011;49472;49.880;8.650;2023-09-12T10:27:07;24.10;;;20.00;;
63346;SDS011;49472;49.880;8.650;2023-09-12T10:29:32;35.80;;;21.13;;
63346;SDS011;49472;49.880;8.650;2023-09-12T10:31:58;28.40;;;20.55;;
63346;SDS011;49472;49.880;8.650;2023-09-12T10:34:24;29.85;;;20.58;;
63346;SDS011;49472;49.880;8.650;2023-09-12T10:36:50;21.52;;;19.05;;
63346;SDS011;49472;49.880;8.650;2023-09-12T10:39:16;25.52;;;20.15;;
63346;SDS011;49472;49.880;8.650;2023-09-12T10:41:43;23.27;;;19.48;;
63346;SDS011;49472;49.880;8.650;2023-09-12T10:44:13;28.30;;;21.47;;
63346;SDS011;49472;49.880;8.650;2023-09-12T10:46:40;25.88;;;19.23;;
63346;SDS011;49472;49.880;8.650;2023-09-12T10:49:09;30.55;;;19.98;;
63346;SDS011;49472;49.880;8.650;2023-09-12T10:51:42;23.10;;;19.35;;
63346;SDS011;49472;49.880;8.650;2023-09-12T10:54:08;24.65;;;20.17;;
63346;SDS011;49472;49.880;8.650;2023-09-12T10:56:33;32.88;;;20.30;;
63346;SDS011;49472;49.880;8.650;2023-09-12T11:01:29;21.58;;;19.55;;
63346;SDS011;49472;49.880;8.650;2023-09-12T11:03:54;23.27;;;20.55;;
63346;SDS011;49472;49.880;8.650;2023-09-12T11:06:20;30.00;;;20.23;;
63346;SDS011;49472;49.880;8.650;2023-09-12T11:09:11;27.10;;;18.65;;
63346;SDS011;49472;49.880;8.650;2023-09-12T11:11:32;45.00;;;19.52;;
63346;SDS011;49472;49.880;8.650;2023-09-12T11:14:03;24.80;;;20.77;;
63346;SDS011;49472;49.880;8.650;2023-09-12T11:16:30;23.65;;;19.13;;
63346;SDS011;49472;49.880;8.650;2023-09-12T11:21:36;21.20;;;19.02;;
63346;SDS011;49472;49.880;8.650;2023-09-12T11:24:02;23.70;;;18.92;;
63346;SDS011;49472;49.880;8.650;2023-09-12T11:26:29;24.95;;;18.60;;
63346;SDS011;49472;49.880;8.650;2023-09-12T11:28:54;23.42;;;19.13;;
63346;SDS011;49472;49.880;8.650;2023-09-12T11:31:26;20.20;;;17.65;;
63346;SDS011;49472;49.880;8.650;2023-09-12T11:33:52;26.27;;;18.83;;
63346;SDS011;49472;49.880;8.650;2023-09-12T11:36:17;24.60;;;18.88;;
63346;SDS011;49472;49.880;8.650;2023-09-12T11:38:43;25.67;;;18.98;;
63346;SDS011;49472;49.880;8.650;2023-09-12T11:41:08;19.80;;;18.03;;
63346;SDS011;49472;49.880;8.650;2023-09-12T11:43:33;20.87;;;18.70;;
63346;SDS011;49472;49.880;8.650;2023-09-12T11:46:03;32.13;;;18.55;;
63346;SDS011;49472;49.880;8.650;2023-09-12T11:48:28;21.42;;;17.85;;
63346;SDS011;49472;49.880;8.650;2023-09-12T11:50:55;35.33;;;18.45;;
63346;SDS011;49472;49.880;8.650;2023-09-12T11:53:21;19.75;;;17.70;;
63346;SDS011;49472;49.880;8.650;2023-09-12T11:55:48;27.15;;;17.08;;
63346;SDS011;49472;49.880;8.650;2023-09-12T11:58:14;23.08;;;18.63;;
63346;SDS011;49472;49.880;8.650;2023-09-12T12:00:44;20.15;;;17.83;;
63346;SDS011;49472;49.880;8.650;2023-09-12T12:03:11;29.13;;;17.92;;
63346;SDS011;49472;49.880;8.650;2023-09-12T12:05:36;21.73;;;16.43;;
63346;SDS011;49472;49.880;8.650;2023-09-12T12:08:01;24.87;;;18.07;;
63346;SDS011;49472;49.880;8.650;2023-09-12T12:10:27;21.58;;;17.40;;
63346;SDS011;49472;49.880;8.650;2023-09-12T12:12:53;30.42;;;17.50;;
63346;SDS011;49472;49.880;8.650;2023-09-12T12:15:19;22.30;;;17.58;;
63346;SDS011;49472;49.880;8.650;2023-09-12T12:17:44;33.72;;;18.23;;
63346;SDS011;49472;49.880;8.650;2023-09-12T12:20:10;24.75;;;17.70;;
63346;SDS011;49472;49.880;8.650;2023-09-12T12:22:39;22.45;;;17.85;;
63346;SDS011;49472;49.880;8.650;2023-09-12T12:25:08;33.20;;;17.38;;
63346;SDS011;49472;49.880;8.650;2023-09-12T12:27:37;23.55;;;17.75;;
63346;SDS011;49472;49.880;8.650;2023-09-12T12:30:03;27.23;;;17.20;;
63346;SDS011;49472;49.880;8.650;2023-09-12T12:32:28;21.48;;;17.10;;
63346;SDS011;49472;49.880;8.650;2023-09-12T12:34:53;19.57;;;17.53;;
63346;SDS011;49472;49.880;8.650;2023-09-12T12:37:19;26.95;;;17.60;;
63346;SDS011;49472;49.880;8.650;2023-09-12T12:39:44;20.47;;;15.97;;
63346;SDS011;49472;49.880;8.650;2023-09-12T12:42:09;24.10;;;16.65;;
63346;SDS011;49472;49.880;8.650;2023-09-12T12:44:35;24.92;;;16.63;;
63346;SDS011;49472;49.880;8.650;2023-09-12T12:47:03;22.48;;;16.23;;
63346;SDS011;49472;49.880;8.650;2023-09-12T12:49:29;30.83;;;17.67;;
63346;SDS011;49472;49.880;8.650;2023-09-12T12:52:02;17.55;;;15.52;;
63346;SDS011;49472;49.880;8.650;2023-09-12T12:54:30;17.08;;;15.45;;
63346;SDS011;49472;49.880;8.650;2023-09-12T12:56:56;26.77;;;16.25;;
63346;SDS011;49472;49.880;8.650;2023-09-12T12:59:22;16.42;;;14.70;;
63346;SDS011;49472;49.880;8.650;2023-09-12T13:01:47;25.73;;;14.82;;
63346;SDS011;49472;49.880;8.650;2023-09-12T13:04:12;17.43;;;15.00;;
63346;SDS011;49472;49.880;8.650;2023-09-12T13:06:37;17.52;;;15.43;;
63346;SDS011;49472;49.880;8.650;2023-09-12T13:09:03;16.33;;;14.57;;
63346;SDS011;49472;49.880;8.650;2023-09-12T13:11:33;15.57;;;14.18;;
63346;SDS011;49472;49.880;8.650;2023-09-12T13:13:59;17.25;;;13.88;;
63346;SDS011;49472;49.880;8.650;2023-09-12T13:16:25;15.10;;;13.57;;
63346;SDS011;49472;49.880;8.650;2023-09-12T13:18:50;20.73;;;15.27;;
63346;SDS011;49472;49.880;8.650;2023-09-12T13:21:15;15.87;;;13.80;;
63346;SDS011;49472;49.880;8.650;2023-09-12T13:23:40;21.80;;;14.03;;
63346;SDS011;49472;49.880;8.650;2023-09-12T13:26:06;17.70;;;12.97;;
63346;SDS011;49472;49.880;8.650;2023-09-12T13:28:32;19.08;;;14.57;;
63346;SDS011;49472;49.880;8.650;2023-09-12T13:30:57;17.02;;;13.60;;
63346;SDS011;49472;49.880;8.650;2023-09-12T13:33:22;19.90;;;12.77;;
63346;SDS011;49472;49.880;8.650;2023-09-12T13:35:48;17.95;;;13.23;;
63346;SDS011;49472;49.880;8.650;2023-09-12T13:38:14;17.42;;;13.45;;
63346;SDS011;49472;49.880;8.650;2023-09-12T13:40:41;17.08;;;13.45;;
63346;SDS011;49472;49.880;8.650;2023-09-12T13:43:07;13.35;;;12.35;;
63346;SDS011;49472;49.880;8.650;2023-09-12T13:45:33;14.25;;;13.02;;
63346;SDS011;49472;49.880;8.650;2023-09-12T13:47:58;19.08;;;12.40;;
63346;SDS011;49472;49.880;8.650;2023-09-12T13:50:24;17.25;;;12.30;;
63346;SDS011;49472;49.880;8.650;2023-09-12T13:52:49;18.30;;;12.10;;
63346;SDS011;49472;49.880;8.650;2023-09-12T13:55:14;13.67;;;12.43;;
63346;SDS011;49472;49.880;8.650;2023-09-12T13:57:41;16.83;;;11.55;;
63346;SDS011;49472;49.880;8.650;2023-09-12T14:00:06;13.02;;;11.93;;
63346;SDS011;49472;49.880;8.650;2023-09-12T14:02:31;13.55;;;11.85;;
63346;SDS011;49472;49.880;8.650;2023-09-12T14:04:57;16.25;;;11.68;;
63346;SDS011;49472;49.880;8.650;2023-09-12T14:07:22;14.43;;;11.20;;
63346;SDS011;49472;49.880;8.650;2023-09-12T14:09:47;14.17;;;11.27;;
63346;SDS011;49472;49.880;8.650;2023-09-12T14:12:14;12.10;;;10.68;;
63346;SDS011;49472;49.880;8.650;2023-09-12T14:14:39;11.95;;;10.82;;
63346;SDS011;49472;49.880;8.650;2023-09-12T14:17:05;11.93;;;10.73;;
63346;SDS011;49472;49.880;8.650;2023-09-12T14:19:30;12.37;;;10.80;;
63346;SDS011;49472;49.880;8.650;2023-09-12T14:21:56;11.40;;;10.30;;
63346;SDS011;49472;49.880;8.650;2023-09-12T14:24:21;11.45;;;10.40;;
63346;SDS011;49472;49.880;8.650;2023-09-12T14:26:46;10.73;;;10.07;;
63346;SDS011;49472;49.880;8.650;2023-09-12T14:29:12;12.27;;;11.02;;